createdAt,value
2017-11-25T00:00:01.463Z,35.85
2017-11-25T00:00:05.462Z,36.00
2017-11-25T00:00:09.469Z,35.95
2017-11-25T00:00:13.708Z,36.67
2017-11-25T00:00:17.960Z,36.80
2017-11-25T00:00:22.213Z,36.20
2017-11-25T00:00:28.154Z,36.33
2017-11-25T00:00:32.395Z,36.55
2017-11-25T00:00:36.643Z,36.70
2017-11-25T00:00:40.892Z,36.70
2017-11-25T00:00:45.128Z,36.95
2017-11-25T00:00:50.139Z,37.00
2017-11-25T00:00:55.125Z,36.87
2017-11-25T00:00:59.378Z,36.70
2017-11-25T00:01:03.656Z,36.80
2017-11-25T00:01:08.655Z,36.70
2017-11-25T00:01:12.895Z,36.03
2017-11-25T00:01:17.152Z,35.85
2017-11-25T00:01:21.405Z,36.27
2017-11-25T00:01:25.635Z,36.25
2017-11-25T00:01:29.870Z,36.45
2017-11-25T00:01:34.894Z,36.57
2017-11-25T00:01:39.883Z,36.77
2017-11-25T00:01:44.146Z,36.53
2017-11-25T00:01:48.393Z,36.35
2017-11-25T00:01:52.634Z,36.75
2017-11-25T00:01:56.880Z,37.00
2017-11-25T00:02:01.136Z,37.17
2017-11-25T00:02:05.384Z,37.45
2017-11-25T00:02:09.615Z,37.65
2017-11-25T00:02:14.617Z,37.75
2017-11-25T00:02:18.876Z,37.53
2017-11-25T00:02:23.204Z,37.65
2017-11-25T00:02:27.452Z,37.60
2017-11-25T00:02:31.761Z,37.40
2017-11-25T00:02:36.005Z,37.37
2017-11-25T00:02:40.762Z,37.23
2017-11-25T00:02:45.018Z,37.75
2017-11-25T00:02:49.262Z,37.70
2017-11-25T00:02:53.490Z,37.60
2017-11-25T00:02:57.740Z,37.70
2017-11-25T00:03:02.755Z,38.00
2017-11-25T00:03:07.766Z,37.77
2017-11-25T00:03:12.038Z,37.80
2017-11-25T00:03:16.267Z,38.30
2017-11-25T00:03:21.281Z,38.30
2017-11-25T00:03:26.310Z,38.42
2017-11-25T00:03:31.317Z,38.33
2017-11-25T00:03:35.581Z,37.83
2017-11-25T00:03:39.810Z,37.60
2017-11-25T00:03:44.058Z,37.55
2017-11-25T00:03:48.301Z,37.70
2017-11-25T00:03:52.562Z,37.70
2017-11-25T00:03:56.794Z,37.55
2017-11-25T00:04:01.044Z,37.15
2017-11-25T00:04:06.031Z,37.00
2017-11-25T00:04:11.056Z,37.40
2017-11-25T00:04:15.297Z,37.45
2017-11-25T00:04:19.538Z,37.55
2017-11-25T00:04:23.767Z,37.50
2017-11-25T00:04:28.781Z,37.60
2017-11-25T00:04:33.776Z,37.67
2017-11-25T00:04:38.006Z,38.10
2017-11-25T00:04:43.012Z,38.53
2017-11-25T00:04:48.024Z,38.37
2017-11-25T00:04:52.266Z,38.13
2017-11-25T00:04:56.493Z,38.15
2017-11-25T00:05:00.749Z,38.05
2017-11-25T00:05:04.997Z,38.45
2017-11-25T00:05:09.246Z,38.57
2017-11-25T00:05:14.268Z,38.50
2017-11-25T00:05:18.493Z,38.37
2017-11-25T00:05:22.732Z,38.20
2017-11-25T00:05:26.978Z,38.33
2017-11-25T00:05:37.487Z,38.60
2017-11-25T00:05:41.722Z,39.04
2017-11-25T00:05:45.957Z,39.47
2017-11-25T00:05:50.200Z,39.45
2017-11-25T00:05:55.197Z,39.60
2017-11-25T00:05:59.438Z,40.00
2017-11-25T00:06:03.670Z,39.85
2017-11-25T00:06:07.940Z,39.70
2017-11-25T00:06:19.962Z,39.60
2017-11-25T00:06:31.065Z,39.60
2017-11-25T00:06:36.084Z,39.50
2017-11-25T00:06:41.101Z,38.73
2017-11-25T00:06:46.111Z,38.60
2017-11-25T00:06:51.118Z,38.83
2017-11-25T00:06:55.509Z,38.38
2017-11-25T00:06:59.765Z,38.20
2017-11-25T00:07:04.021Z,38.30
2017-11-25T00:07:08.254Z,38.40
2017-11-25T00:07:12.546Z,38.13
2017-11-25T00:07:16.782Z,38.50
2017-11-25T00:07:21.010Z,38.65
2017-11-25T00:07:25.256Z,38.70
2017-11-25T00:07:29.516Z,38.60
2017-11-25T00:07:33.742Z,38.50
2017-11-25T00:07:38.006Z,38.40
2017-11-25T00:07:42.237Z,38.10
2017-11-25T00:07:47.266Z,37.67
2017-11-25T00:07:52.248Z,37.70
2017-11-25T00:07:56.507Z,37.80
2017-11-25T00:08:00.743Z,37.50
2017-11-25T00:08:05.776Z,37.30
2017-11-25T00:08:10.023Z,37.27
2017-11-25T00:08:14.270Z,37.43
2017-11-25T00:08:18.502Z,37.30
2017-11-25T00:08:22.739Z,36.90
2017-11-25T00:08:26.970Z,36.80
2017-11-25T00:08:31.224Z,37.03
2017-11-25T00:08:35.465Z,37.20
2017-11-25T00:08:39.699Z,37.30
2017-11-25T00:08:43.930Z,37.40
2017-11-25T00:08:48.195Z,37.60
2017-11-25T00:08:53.216Z,37.60
2017-11-25T00:08:58.230Z,37.93
2017-11-25T00:09:03.241Z,38.00
2017-11-25T00:09:08.252Z,37.63
2017-11-25T00:09:13.259Z,37.63
2017-11-25T00:09:17.506Z,37.33
2017-11-25T00:09:21.753Z,37.20
2017-11-25T00:09:26.007Z,36.90
2017-11-25T00:09:30.232Z,36.50
2017-11-25T00:09:34.483Z,36.55
2017-11-25T00:09:39.512Z,36.50
2017-11-25T00:09:44.523Z,36.50
2017-11-25T00:09:49.540Z,36.07
2017-11-25T00:09:54.539Z,35.50
2017-11-25T00:09:59.553Z,35.33
2017-11-25T00:10:03.786Z,35.67
2017-11-25T00:10:08.037Z,35.65
2017-11-25T00:10:12.265Z,35.55
2017-11-25T00:10:17.258Z,35.90
2017-11-25T00:10:21.513Z,35.90
2017-11-25T00:10:25.750Z,36.40
2017-11-25T00:10:29.994Z,36.40
2017-11-25T00:10:34.254Z,36.05
2017-11-25T00:10:38.514Z,36.17
2017-11-25T00:10:42.749Z,36.15
2017-11-25T00:10:46.999Z,36.80
2017-11-25T00:10:51.992Z,37.10
2017-11-25T00:10:56.233Z,37.70
2017-11-25T00:11:00.482Z,37.67
2017-11-25T00:11:04.734Z,37.75
2017-11-25T00:11:08.965Z,37.90
2017-11-25T00:11:13.222Z,37.80
2017-11-25T00:11:17.457Z,37.40
2017-11-25T00:11:21.708Z,37.40
2017-11-25T00:11:26.721Z,37.30
2017-11-25T00:11:31.721Z,37.43
2017-11-25T00:11:35.951Z,37.80
2017-11-25T00:11:40.218Z,38.67
2017-11-25T00:11:44.442Z,38.65
2017-11-25T00:11:49.461Z,38.30
2017-11-25T00:11:54.469Z,38.27
2017-11-25T00:11:59.473Z,37.67
2017-11-25T00:12:03.732Z,37.53
2017-11-25T00:12:08.172Z,37.40
2017-11-25T00:12:12.397Z,37.85
2017-11-25T00:12:17.416Z,38.05
2017-11-25T00:12:22.441Z,38.30
2017-11-25T00:12:26.676Z,38.30
2017-11-25T00:12:30.925Z,38.40
2017-11-25T00:12:35.944Z,37.95
2017-11-25T00:12:40.320Z,37.30
2017-11-25T00:12:44.550Z,37.25
2017-11-25T00:12:49.558Z,37.33
2017-11-25T00:12:54.567Z,37.37
2017-11-25T00:12:58.808Z,37.70
2017-11-25T00:13:03.065Z,37.85
2017-11-25T00:13:07.290Z,37.60
2017-11-25T00:13:11.523Z,37.40
2017-11-25T00:13:15.770Z,37.50
2017-11-25T00:13:20.005Z,37.30
2017-11-25T00:13:24.255Z,37.50
2017-11-25T00:13:28.492Z,37.65
2017-11-25T00:13:33.501Z,38.17
2017-11-25T00:13:38.517Z,38.40
2017-11-25T00:13:43.522Z,38.17
2017-11-25T00:13:47.770Z,38.07
2017-11-25T00:13:51.999Z,38.15
2017-11-25T00:13:56.247Z,37.85
2017-11-25T00:14:00.479Z,37.47
2017-11-25T00:14:04.732Z,37.85
2017-11-25T00:14:09.735Z,37.90
2017-11-25T00:14:13.968Z,37.77
2017-11-25T00:14:18.211Z,37.65
2017-11-25T00:14:22.457Z,37.20
2017-11-25T00:14:27.476Z,36.75
2017-11-25T00:14:32.496Z,36.40
2017-11-25T00:14:37.507Z,36.23
2017-11-25T00:14:42.530Z,36.30
2017-11-25T00:14:47.534Z,36.83
2017-11-25T00:14:52.560Z,37.03
2017-11-25T00:14:57.558Z,37.23
2017-11-25T00:15:01.809Z,37.47
2017-11-25T00:15:06.034Z,37.35
2017-11-25T00:15:10.283Z,37.73
2017-11-25T00:15:15.308Z,37.35
2017-11-25T00:15:20.308Z,37.70
2017-11-25T00:15:25.318Z,37.97
2017-11-25T00:15:29.549Z,37.67
2017-11-25T00:15:33.797Z,37.60
2017-11-25T00:15:38.044Z,37.87
2017-11-25T00:15:43.061Z,38.00
2017-11-25T00:15:48.084Z,37.77
2017-11-25T00:15:52.323Z,37.93
2017-11-25T00:15:56.573Z,38.05
2017-11-25T00:16:01.570Z,38.10
2017-11-25T00:16:05.820Z,38.40
2017-11-25T00:16:10.078Z,38.80
2017-11-25T00:16:14.329Z,39.50
2017-11-25T00:16:18.562Z,39.40
2017-11-25T00:16:22.794Z,39.30
2017-11-25T00:16:27.057Z,39.50
2017-11-25T00:16:31.308Z,39.50
2017-11-25T00:16:35.531Z,39.30
2017-11-25T00:16:39.778Z,39.17
2017-11-25T00:16:44.003Z,39.30
2017-11-25T00:16:48.243Z,39.00
2017-11-25T00:16:52.494Z,38.65
2017-11-25T00:16:57.505Z,38.80
2017-11-25T00:17:02.502Z,38.83
2017-11-25T00:17:06.755Z,38.70
2017-11-25T00:17:10.995Z,38.15
2017-11-25T00:17:15.241Z,37.90
2017-11-25T00:17:19.499Z,38.05
2017-11-25T00:17:23.749Z,38.10
2017-11-25T00:17:27.994Z,37.90
2017-11-25T00:17:32.396Z,38.15
2017-11-25T00:17:36.630Z,38.40
2017-11-25T00:17:40.888Z,38.25
2017-11-25T00:17:45.127Z,38.10
2017-11-25T00:17:49.392Z,38.43
2017-11-25T00:17:53.650Z,38.50
2017-11-25T00:17:57.921Z,38.50
2017-11-25T00:18:02.125Z,38.30
2017-11-25T00:18:07.146Z,38.10
2017-11-25T00:18:12.138Z,37.70
2017-11-25T00:18:16.399Z,37.60
2017-11-25T00:18:20.644Z,37.40
2017-11-25T00:18:24.871Z,37.55
2017-11-25T00:18:29.121Z,37.80
2017-11-25T00:18:33.370Z,37.80
2017-11-25T00:18:38.393Z,37.35
2017-11-25T00:18:42.631Z,37.43
2017-11-25T00:18:46.869Z,37.50
2017-11-25T00:18:51.885Z,37.60
2017-11-25T00:18:56.896Z,37.53
2017-11-25T00:19:02.036Z,37.77
2017-11-25T00:19:07.050Z,38.10
2017-11-25T00:19:12.055Z,38.43
2017-11-25T00:19:16.287Z,38.70
2017-11-25T00:19:20.518Z,38.80
2017-11-25T00:19:24.766Z,38.90
2017-11-25T00:19:29.769Z,38.27
2017-11-25T00:19:34.024Z,38.03
2017-11-25T00:19:38.245Z,38.35
2017-11-25T00:19:42.493Z,38.50
2017-11-25T00:19:47.493Z,38.55
2017-11-25T00:19:52.504Z,38.07
2017-11-25T00:19:56.755Z,37.97
2017-11-25T00:20:00.995Z,37.77
2017-11-25T00:20:05.231Z,37.50
2017-11-25T00:20:09.479Z,37.50
2017-11-25T00:20:13.735Z,37.40
2017-11-25T00:20:18.736Z,37.40
2017-11-25T00:20:23.768Z,37.27
2017-11-25T00:20:28.788Z,37.47
2017-11-25T00:20:33.036Z,37.53
2017-11-25T00:20:37.275Z,37.75
2017-11-25T00:20:42.297Z,37.45
2017-11-25T00:20:47.312Z,37.38
2017-11-25T00:20:52.329Z,37.47
2017-11-25T00:20:57.341Z,37.47
2017-11-25T00:21:02.354Z,37.30
2017-11-25T00:21:07.349Z,37.30
2017-11-25T00:21:11.612Z,37.17
2017-11-25T00:21:15.843Z,36.90
2017-11-25T00:21:20.089Z,37.10
2017-11-25T00:21:25.102Z,37.10
2017-11-25T00:21:30.094Z,37.30
2017-11-25T00:21:34.333Z,37.57
2017-11-25T00:21:38.587Z,37.80
2017-11-25T00:21:42.840Z,37.70
2017-11-25T00:21:47.083Z,37.80
2017-11-25T00:21:51.336Z,37.63
2017-11-25T00:21:55.568Z,37.60
2017-11-25T00:21:59.821Z,37.70
2017-11-25T00:22:04.818Z,37.70
2017-11-25T00:22:09.067Z,37.83
2017-11-25T00:22:13.302Z,37.93
2017-11-25T00:22:17.578Z,37.85
2017-11-25T00:22:21.836Z,37.90
2017-11-25T00:22:26.857Z,38.10
2017-11-25T00:22:31.854Z,37.70
2017-11-25T00:22:36.090Z,37.37
2017-11-25T00:22:40.318Z,37.20
2017-11-25T00:22:44.641Z,36.95
2017-11-25T00:22:48.872Z,37.35
2017-11-25T00:22:53.915Z,37.40
2017-11-25T00:22:58.896Z,37.33
2017-11-25T00:23:03.157Z,37.40
2017-11-25T00:23:07.405Z,37.30
2017-11-25T00:23:11.630Z,37.10
2017-11-25T00:23:15.862Z,37.30
2017-11-25T00:23:20.099Z,37.45
2017-11-25T00:23:25.107Z,37.50
2017-11-25T00:23:29.334Z,37.80
2017-11-25T00:23:33.575Z,38.10
2017-11-25T00:23:37.824Z,37.80
2017-11-25T00:23:42.849Z,37.80
2017-11-25T00:23:47.859Z,37.63
2017-11-25T00:23:52.871Z,37.47
2017-11-25T00:23:57.888Z,37.57
2017-11-25T00:24:02.909Z,37.60
2017-11-25T00:24:07.925Z,37.73
2017-11-25T00:24:12.922Z,38.07
2017-11-25T00:24:17.169Z,38.33
2017-11-25T00:24:21.402Z,38.30
2017-11-25T00:24:25.646Z,38.40
2017-11-25T00:24:30.672Z,38.45
2017-11-25T00:24:35.683Z,38.50
2017-11-25T00:24:40.704Z,38.87
2017-11-25T00:24:45.716Z,38.97
2017-11-25T00:24:49.952Z,38.80
2017-11-25T00:24:54.202Z,38.80
2017-11-25T00:24:58.440Z,38.93
2017-11-25T00:25:02.703Z,39.10
2017-11-25T00:25:06.934Z,39.10
2017-11-25T00:25:11.175Z,39.30
2017-11-25T00:25:15.445Z,38.97
2017-11-25T00:25:19.688Z,38.70
2017-11-25T00:25:23.923Z,38.50
2017-11-25T00:25:28.939Z,38.80
2017-11-25T00:25:33.957Z,39.20
2017-11-25T00:25:38.967Z,39.10
2017-11-25T00:25:43.976Z,39.50
2017-11-25T00:25:48.240Z,39.80
2017-11-25T00:25:52.466Z,40.25
2017-11-25T00:25:56.703Z,40.15
2017-11-25T00:26:00.953Z,40.15
2017-11-25T00:26:05.210Z,40.10
2017-11-25T00:26:09.439Z,39.60
2017-11-25T00:26:13.677Z,39.50
2017-11-25T00:26:17.931Z,39.55
2017-11-25T00:26:22.190Z,39.87
2017-11-25T00:26:27.198Z,39.35
2017-11-25T00:26:32.196Z,38.93
2017-11-25T00:26:36.427Z,38.60
2017-11-25T00:26:41.422Z,38.50
2017-11-25T00:26:45.654Z,38.23
2017-11-25T00:26:49.908Z,38.43
2017-11-25T00:26:54.158Z,38.55
2017-11-25T00:26:58.405Z,38.90
2017-11-25T00:27:02.636Z,38.80
2017-11-25T00:27:07.645Z,39.00
2017-11-25T00:27:11.901Z,39.40
2017-11-25T00:27:16.151Z,39.65
2017-11-25T00:27:20.421Z,39.50
2017-11-25T00:27:24.659Z,39.77
2017-11-25T00:27:39.244Z,40.26
2017-11-25T00:27:43.483Z,40.60
2017-11-25T00:27:47.726Z,40.67
2017-11-25T00:27:51.983Z,40.45
2017-11-25T00:27:56.234Z,40.20
2017-11-25T00:28:00.494Z,40.33
2017-11-25T00:28:04.754Z,40.55
2017-11-25T00:28:09.081Z,40.70
2017-11-25T00:28:13.327Z,40.50
2017-11-25T00:28:17.575Z,40.73
2017-11-25T00:28:21.820Z,40.65
2017-11-25T00:28:26.064Z,40.70
2017-11-25T00:28:31.318Z,40.90
2017-11-25T00:28:36.331Z,41.28
2017-11-25T00:28:40.574Z,41.07
2017-11-25T00:28:44.820Z,41.50
2017-11-25T00:28:49.052Z,41.70
2017-11-25T00:28:54.046Z,41.77
2017-11-25T00:28:58.299Z,41.67
2017-11-25T00:29:02.552Z,41.25
2017-11-25T00:29:06.784Z,41.20
2017-11-25T00:29:11.031Z,41.30
2017-11-25T00:29:15.273Z,40.97
2017-11-25T00:29:19.514Z,40.85
2017-11-25T00:29:23.774Z,41.05
2017-11-25T00:29:28.788Z,40.90
2017-11-25T00:29:33.030Z,40.78
2017-11-25T00:29:37.272Z,40.50
2017-11-25T00:29:42.289Z,40.50
2017-11-25T00:29:46.505Z,39.93
2017-11-25T00:29:50.765Z,39.70
2017-11-25T00:29:55.029Z,39.83
2017-11-25T00:29:59.272Z,39.95
2017-11-25T00:30:03.521Z,40.20
2017-11-25T00:30:07.763Z,40.20
2017-11-25T00:30:12.020Z,40.43
2017-11-25T00:30:16.265Z,40.35
2017-11-25T00:30:20.517Z,40.40
2017-11-25T00:30:24.762Z,40.30
2017-11-25T00:30:29.020Z,40.17
2017-11-25T00:30:33.261Z,40.00
2017-11-25T00:30:37.489Z,39.80
2017-11-25T00:30:42.506Z,39.33
2017-11-25T00:30:47.502Z,39.50
2017-11-25T00:30:51.765Z,39.57
2017-11-25T00:30:56.017Z,39.30
2017-11-25T00:31:00.245Z,39.30
2017-11-25T00:31:05.260Z,38.80
2017-11-25T00:31:10.260Z,38.40
2017-11-25T00:31:15.276Z,37.93
2017-11-25T00:31:20.295Z,37.78
2017-11-25T00:31:24.528Z,37.80
2017-11-25T00:31:28.784Z,37.90
2017-11-25T00:31:33.020Z,37.80
2017-11-25T00:31:37.247Z,38.25
2017-11-25T00:31:41.481Z,39.20
2017-11-25T00:31:45.711Z,39.20
2017-11-25T00:31:50.735Z,39.05
2017-11-25T00:31:55.739Z,38.93
2017-11-25T00:32:00.759Z,38.77
2017-11-25T00:32:05.779Z,39.43
2017-11-25T00:32:10.785Z,39.77
2017-11-25T00:32:15.040Z,40.37
2017-11-25T00:32:19.277Z,40.37
2017-11-25T00:32:23.523Z,40.40
2017-11-25T00:32:27.765Z,40.40
2017-11-25T00:32:33.533Z,40.95
2017-11-25T00:32:37.774Z,40.80
2017-11-25T00:32:42.011Z,39.65
2017-11-25T00:32:46.242Z,39.50
2017-11-25T00:32:50.487Z,39.40
2017-11-25T00:32:54.726Z,39.40
2017-11-25T00:32:59.726Z,39.35
2017-11-25T00:33:03.981Z,39.07
2017-11-25T00:33:08.244Z,38.43
2017-11-25T00:33:13.320Z,38.35
2017-11-25T00:33:17.552Z,38.13
2017-11-25T00:33:21.779Z,38.10
2017-11-25T00:33:26.043Z,38.07
2017-11-25T00:33:30.286Z,37.75
2017-11-25T00:33:34.537Z,37.60
2017-11-25T00:33:38.789Z,37.70
2017-11-25T00:33:43.045Z,38.20
2017-11-25T00:33:47.284Z,37.80
2017-11-25T00:33:51.519Z,37.80
2017-11-25T00:33:55.779Z,37.85
2017-11-25T00:34:00.011Z,37.67
2017-11-25T00:34:04.261Z,37.85
2017-11-25T00:34:09.266Z,38.10
2017-11-25T00:34:13.492Z,38.00
2017-11-25T00:34:17.739Z,38.47
2017-11-25T00:34:21.989Z,38.50
2017-11-25T00:34:26.232Z,38.60
2017-11-25T00:34:30.465Z,38.40
2017-11-25T00:34:34.720Z,38.17
2017-11-25T00:34:38.955Z,38.15
2017-11-25T00:34:43.214Z,38.05
2017-11-25T00:34:47.453Z,37.90
2017-11-25T00:34:51.705Z,37.90
2017-11-25T00:34:55.944Z,38.00
2017-11-25T00:35:00.179Z,37.85
2017-11-25T00:35:05.206Z,37.50
2017-11-25T00:35:10.193Z,37.30
2017-11-25T00:35:14.431Z,37.30
2017-11-25T00:35:18.688Z,37.20
2017-11-25T00:35:22.933Z,37.10
2017-11-25T00:35:27.176Z,36.90
2017-11-25T00:35:31.433Z,37.43
2017-11-25T00:35:35.689Z,37.50
2017-11-25T00:35:39.921Z,37.50
2017-11-25T00:35:44.926Z,37.50
2017-11-25T00:35:49.947Z,38.00
2017-11-25T00:35:54.228Z,38.20
2017-11-25T00:35:58.481Z,38.55
2017-11-25T00:36:02.735Z,39.05
2017-11-25T00:36:06.974Z,39.00
2017-11-25T00:36:11.224Z,38.87
2017-11-25T00:36:15.479Z,38.45
2017-11-25T00:36:19.694Z,38.50
2017-11-25T00:36:23.961Z,38.30
2017-11-25T00:36:28.969Z,38.27
2017-11-25T00:36:33.970Z,38.23
2017-11-25T00:36:38.214Z,38.13
2017-11-25T00:36:42.447Z,38.25
2017-11-25T00:36:46.678Z,38.40
2017-11-25T00:36:51.701Z,38.55
2017-11-25T00:36:56.752Z,38.53
2017-11-25T00:37:01.727Z,38.50
2017-11-25T00:37:06.740Z,38.60
2017-11-25T00:37:10.998Z,38.87
2017-11-25T00:37:15.698Z,39.05
2017-11-25T00:37:20.674Z,39.30
2017-11-25T00:37:25.685Z,39.57
2017-11-25T00:37:29.927Z,39.27
2017-11-25T00:37:34.163Z,38.85
2017-11-25T00:37:38.399Z,39.20
2017-11-25T00:37:43.427Z,39.30
2017-11-25T00:37:47.688Z,38.88
2017-11-25T00:37:51.950Z,38.45
2017-11-25T00:37:56.177Z,38.50
2017-11-25T00:38:01.193Z,38.40
2017-11-25T00:38:05.422Z,38.60
2017-11-25T00:38:09.676Z,38.87
2017-11-25T00:38:13.912Z,38.70
2017-11-25T00:38:18.165Z,38.60
2017-11-25T00:38:22.400Z,38.30
2017-11-25T00:38:26.653Z,38.40
2017-11-25T00:38:30.896Z,38.70
2017-11-25T00:38:35.912Z,38.60
2017-11-25T00:38:40.147Z,38.43
2017-11-25T00:38:45.161Z,38.10
2017-11-25T00:38:49.408Z,37.95
2017-11-25T00:38:53.655Z,38.10
2017-11-25T00:38:57.881Z,37.85
2017-11-25T00:39:02.134Z,37.65
2017-11-25T00:39:06.362Z,37.40
2017-11-25T00:39:11.374Z,37.45
2017-11-25T00:39:15.616Z,37.80
2017-11-25T00:39:19.862Z,37.75
2017-11-25T00:39:24.103Z,38.10
2017-11-25T00:39:29.123Z,38.00
2017-11-25T00:39:34.127Z,37.87
2017-11-25T00:39:39.136Z,37.87
2017-11-25T00:39:43.375Z,38.00
2017-11-25T00:39:47.602Z,38.10
2017-11-25T00:39:51.838Z,38.55
2017-11-25T00:39:56.891Z,38.90
2017-11-25T00:40:01.871Z,39.50
2017-11-25T00:40:06.998Z,39.73
2017-11-25T00:40:12.002Z,39.93
2017-11-25T00:40:16.260Z,39.87
2017-11-25T00:40:20.484Z,40.20
2017-11-25T00:40:24.732Z,40.45
2017-11-25T00:40:28.962Z,40.60
2017-11-25T00:40:33.199Z,40.85
2017-11-25T00:40:37.435Z,41.15
2017-11-25T00:40:41.681Z,41.40
2017-11-25T00:40:45.930Z,41.53
2017-11-25T00:40:50.177Z,41.60
2017-11-25T00:40:54.435Z,41.25
2017-11-25T00:40:58.681Z,41.20
2017-11-25T00:41:02.936Z,41.33
2017-11-25T00:41:07.177Z,41.05
2017-11-25T00:41:11.419Z,40.95
2017-11-25T00:41:16.428Z,41.30
2017-11-25T00:41:21.422Z,41.20
2017-11-25T00:41:25.659Z,40.70
2017-11-25T00:41:29.913Z,40.90
2017-11-25T00:41:34.155Z,40.80
2017-11-25T00:41:39.160Z,40.55
2017-11-25T00:41:43.382Z,40.43
2017-11-25T00:41:47.622Z,40.47
2017-11-25T00:41:52.656Z,40.90
2017-11-25T00:41:56.896Z,41.00
2017-11-25T00:42:01.141Z,41.10
2017-11-25T00:42:05.383Z,41.20
2017-11-25T00:42:09.620Z,41.20
2017-11-25T00:42:13.871Z,41.10
2017-11-25T00:42:18.095Z,41.00
2017-11-25T00:42:22.352Z,40.90
2017-11-25T00:42:26.616Z,40.83
2017-11-25T00:42:30.870Z,40.50
2017-11-25T00:42:35.109Z,40.40
2017-11-25T00:42:39.344Z,40.30
2017-11-25T00:42:43.597Z,40.15
2017-11-25T00:42:48.608Z,40.05
2017-11-25T00:42:53.629Z,39.50
2017-11-25T00:42:58.667Z,39.00
2017-11-25T00:43:02.858Z,38.80
2017-11-25T00:43:07.090Z,38.70
2017-11-25T00:43:11.350Z,38.30
2017-11-25T00:43:15.578Z,38.25
2017-11-25T00:43:19.815Z,38.50
2017-11-25T00:43:24.063Z,38.77
2017-11-25T00:43:29.062Z,38.90
2017-11-25T00:43:34.079Z,38.80
2017-11-25T00:43:39.097Z,38.83
2017-11-25T00:43:44.112Z,39.10
2017-11-25T00:43:49.118Z,38.90
2017-11-25T00:43:54.139Z,38.77
2017-11-25T00:43:59.146Z,38.97
2017-11-25T00:44:03.383Z,38.53
2017-11-25T00:44:07.620Z,38.65
2017-11-25T00:44:11.853Z,38.77
2017-11-25T00:44:16.850Z,38.45
2017-11-25T00:44:21.099Z,38.17
2017-11-25T00:44:25.352Z,37.95
2017-11-25T00:44:29.592Z,38.00
2017-11-25T00:44:33.852Z,38.17
2017-11-25T00:44:38.087Z,38.50
2017-11-25T00:44:43.102Z,38.55
2017-11-25T00:44:48.124Z,38.90
2017-11-25T00:44:53.108Z,39.00
2017-11-25T00:44:57.356Z,39.20
2017-11-25T00:45:01.596Z,39.53
2017-11-25T00:45:05.852Z,39.60
2017-11-25T00:45:10.096Z,39.70
2017-11-25T00:45:14.395Z,39.85
2017-11-25T00:45:18.653Z,39.73
2017-11-25T00:45:22.888Z,39.60
2017-11-25T00:45:27.162Z,39.60
2017-11-25T00:45:32.152Z,39.60
2017-11-25T00:45:37.155Z,39.57
2017-11-25T00:45:41.424Z,39.00
2017-11-25T00:45:45.672Z,39.05
2017-11-25T00:45:50.683Z,39.10
2017-11-25T00:45:55.693Z,39.03
2017-11-25T00:45:59.922Z,38.90
2017-11-25T00:46:04.153Z,38.60
2017-11-25T00:46:08.417Z,38.80
2017-11-25T00:46:13.410Z,38.95
2017-11-25T00:46:18.428Z,38.77
2017-11-25T00:46:22.680Z,39.00
2017-11-25T00:46:26.926Z,39.20
2017-11-25T00:46:31.189Z,39.20
2017-11-25T00:46:35.440Z,39.30
2017-11-25T00:46:40.467Z,39.30
2017-11-25T00:46:45.459Z,39.03
2017-11-25T00:46:49.704Z,39.10
2017-11-25T00:46:53.955Z,39.05
2017-11-25T00:46:58.198Z,38.97
2017-11-25T00:47:02.455Z,39.10
2017-11-25T00:47:06.688Z,39.05
2017-11-25T00:47:10.926Z,38.70
2017-11-25T00:47:15.173Z,38.70
2017-11-25T00:47:20.190Z,38.50
2017-11-25T00:47:25.209Z,38.63
2017-11-25T00:47:30.204Z,38.60
2017-11-25T00:47:34.464Z,38.60
2017-11-25T00:47:38.688Z,38.45
2017-11-25T00:47:42.945Z,38.70
2017-11-25T00:47:47.192Z,38.65
2017-11-25T00:47:52.185Z,38.55
2017-11-25T00:47:56.454Z,38.97
2017-11-25T00:48:00.936Z,39.10
2017-11-25T00:48:05.238Z,39.20
2017-11-25T00:48:09.471Z,39.45
2017-11-25T00:48:13.711Z,39.63
2017-11-25T00:48:17.957Z,39.90
2017-11-25T00:48:22.962Z,39.65
2017-11-25T00:48:27.958Z,39.37
2017-11-25T00:48:32.217Z,39.40
2017-11-25T00:48:36.450Z,39.50
2017-11-25T00:48:40.704Z,39.30
2017-11-25T00:48:44.935Z,39.40
2017-11-25T00:48:49.166Z,39.90
2017-11-25T00:48:53.423Z,39.60
2017-11-25T00:48:57.697Z,39.33
2017-11-25T00:49:02.718Z,39.10
2017-11-25T00:49:06.987Z,38.93
2017-11-25T00:49:11.223Z,38.85
2017-11-25T00:49:15.502Z,38.90
2017-11-25T00:49:19.710Z,39.05
2017-11-25T00:49:24.711Z,39.55
2017-11-25T00:49:28.950Z,39.53
2017-11-25T00:49:33.173Z,39.25
2017-11-25T00:49:37.420Z,39.03
2017-11-25T00:49:42.544Z,39.10
2017-11-25T00:49:47.541Z,38.77
2017-11-25T00:49:51.776Z,38.63
2017-11-25T00:49:56.010Z,38.70
2017-11-25T00:50:00.252Z,38.63
2017-11-25T00:50:05.258Z,38.45
2017-11-25T00:50:09.500Z,38.53
2017-11-25T00:50:13.739Z,38.60
2017-11-25T00:50:17.966Z,38.20
2017-11-25T00:50:22.980Z,37.90
2017-11-25T00:50:27.326Z,38.10
2017-11-25T00:50:32.321Z,38.30
2017-11-25T00:50:37.318Z,38.57
2017-11-25T00:50:42.385Z,38.63
2017-11-25T00:50:46.614Z,38.60
2017-11-25T00:50:50.852Z,38.35
2017-11-25T00:50:55.861Z,38.10
2017-11-25T00:51:00.110Z,38.10
2017-11-25T00:51:04.361Z,38.10
2017-11-25T00:51:08.596Z,37.90
2017-11-25T00:51:12.844Z,37.70
2017-11-25T00:51:17.097Z,38.05
2017-11-25T00:51:21.332Z,38.05
2017-11-25T00:51:25.563Z,37.85
2017-11-25T00:51:30.572Z,37.67
2017-11-25T00:51:34.817Z,37.90
2017-11-25T00:51:39.055Z,37.80
2017-11-25T00:51:43.304Z,37.75
2017-11-25T00:51:47.557Z,37.95
2017-11-25T00:51:51.807Z,38.03
2017-11-25T00:51:56.060Z,38.30
2017-11-25T00:52:00.304Z,38.25
2017-11-25T00:52:04.560Z,38.25
2017-11-25T00:52:08.807Z,38.60
2017-11-25T00:52:13.038Z,38.80
2017-11-25T00:52:17.262Z,38.65
2017-11-25T00:52:21.502Z,38.47
2017-11-25T00:52:25.747Z,38.30
2017-11-25T00:52:29.999Z,38.20
2017-11-25T00:52:34.229Z,38.00
2017-11-25T00:52:39.223Z,38.10
2017-11-25T00:52:43.478Z,38.30
2017-11-25T00:52:47.716Z,38.20
2017-11-25T00:52:51.947Z,38.20
2017-11-25T00:52:56.174Z,38.20
2017-11-25T00:53:00.436Z,38.20
2017-11-25T00:53:04.676Z,37.95
2017-11-25T00:53:08.915Z,37.55
2017-11-25T00:53:13.168Z,37.45
2017-11-25T00:53:17.420Z,37.20
2017-11-25T00:53:21.662Z,37.40
2017-11-25T00:53:25.910Z,37.40
2017-11-25T00:53:30.921Z,37.50
2017-11-25T00:53:35.916Z,37.17
2017-11-25T00:53:40.167Z,36.80
2017-11-25T00:53:44.426Z,36.80
2017-11-25T00:53:48.692Z,37.25
2017-11-25T00:53:52.894Z,37.40
2017-11-25T00:53:57.153Z,37.17
2017-11-25T00:54:01.391Z,37.25
2017-11-25T00:54:05.628Z,37.50
2017-11-25T00:54:10.645Z,37.90
2017-11-25T00:54:14.874Z,38.07
2017-11-25T00:54:19.136Z,38.13
2017-11-25T00:54:23.381Z,38.10
2017-11-25T00:54:27.611Z,38.20
2017-11-25T00:54:31.869Z,38.35
2017-11-25T00:54:36.116Z,38.67
2017-11-25T00:54:40.360Z,39.10
2017-11-25T00:54:45.364Z,38.85
2017-11-25T00:54:50.393Z,38.80
2017-11-25T00:54:55.396Z,38.60
2017-11-25T00:54:59.619Z,38.57
2017-11-25T00:55:03.883Z,38.53
2017-11-25T00:55:08.134Z,38.35
2017-11-25T00:55:12.356Z,38.00
2017-11-25T00:55:16.594Z,37.90
2017-11-25T00:55:21.599Z,38.07
2017-11-25T00:55:25.860Z,38.10
2017-11-25T00:55:30.205Z,37.85
2017-11-25T00:55:34.467Z,37.70
2017-11-25T00:55:38.715Z,37.53
2017-11-25T00:55:42.968Z,37.45
2017-11-25T00:55:47.197Z,37.20
2017-11-25T00:55:51.426Z,37.35
2017-11-25T00:55:56.434Z,37.60
2017-11-25T00:56:00.693Z,37.67
2017-11-25T00:56:04.921Z,37.25
2017-11-25T00:56:09.158Z,37.35
2017-11-25T00:56:13.397Z,37.43
2017-11-25T00:56:17.648Z,37.30
2017-11-25T00:56:22.665Z,36.90
2017-11-25T00:56:27.676Z,36.90
2017-11-25T00:56:32.682Z,37.03
2017-11-25T00:56:36.928Z,36.90
2017-11-25T00:56:41.159Z,36.80
2017-11-25T00:56:45.416Z,36.63
2017-11-25T00:56:49.660Z,36.25
2017-11-25T00:56:53.909Z,35.80
2017-11-25T00:56:58.146Z,35.87
2017-11-25T00:57:02.441Z,36.20
2017-11-25T00:57:06.662Z,36.60
2017-11-25T00:57:10.908Z,36.40
2017-11-25T00:57:15.257Z,36.80
2017-11-25T00:57:19.475Z,37.20
2017-11-25T00:57:23.728Z,37.50
2017-11-25T00:57:27.971Z,37.60
2017-11-25T00:57:32.226Z,37.53
2017-11-25T00:57:36.454Z,37.60
2017-11-25T00:57:40.695Z,37.95
2017-11-25T00:57:45.721Z,38.07
2017-11-25T00:57:50.730Z,38.20
2017-11-25T00:57:55.728Z,38.47
2017-11-25T00:57:59.971Z,38.37